createdAt,value
2023-01-04T00:01:22.832Z,102140.00
2023-01-04T00:03:50.046Z,102138.00
2023-01-04T00:06:18.170Z,102115.00
2023-01-04T00:08:45.002Z,102108.00
2023-01-04T00:11:23.315Z,102096.00
2023-01-04T00:13:55.405Z,102096.00
2023-01-04T00:16:25.032Z,102097.00
2023-01-04T00:18:53.703Z,102091.00
2023-01-04T00:21:27.873Z,102087.00
2023-01-04T00:24:01.310Z,102088.00
2023-01-04T00:26:37.134Z,102082.00
2023-01-04T00:29:11.322Z,102077.00
2023-01-04T00:31:38.404Z,102061.00
2023-01-04T00:34:06.695Z,102066.00
2023-01-04T00:36:34.613Z,102061.00
2023-01-04T00:39:12.421Z,102046.00
2023-01-04T00:42:08.168Z,102050.00
2023-01-04T00:44:35.613Z,102048.00
2023-01-04T00:47:04.542Z,102037.00
2023-01-04T00:49:31.956Z,102033.00
2023-01-04T00:51:59.121Z,102020.00
2023-01-04T00:54:26.591Z,102020.00
2023-01-04T00:56:53.317Z,102016.00
2023-01-04T00:59:22.179Z,102010.00
2023-01-04T01:01:50.011Z,102001.00
2023-01-04T01:04:21.264Z,101988.00
2023-01-04T01:06:49.355Z,101990.00
2023-01-04T01:09:16.593Z,101989.00
2023-01-04T01:11:43.966Z,101988.00
2023-01-04T01:14:19.036Z,101990.00
2023-01-04T01:16:56.633Z,101989.00
2023-01-04T01:19:27.745Z,101993.00
2023-01-04T01:21:56.927Z,101991.00
2023-01-04T01:24:23.730Z,101988.00
2023-01-04T01:26:50.486Z,101987.00
2023-01-04T01:29:17.319Z,101979.00
2023-01-04T01:31:44.107Z,101979.00
2023-01-04T01:34:10.910Z,101983.00
2023-01-04T01:36:37.998Z,101984.00
2023-01-04T01:39:06.241Z,101983.00
2023-01-04T01:41:35.541Z,101987.00
2023-01-04T01:44:42.578Z,101992.00
2023-01-04T01:47:23.401Z,101997.00
2023-01-04T01:49:54.420Z,101991.00
2023-01-04T01:52:32.186Z,101996.00
2023-01-04T01:55:03.774Z,101998.00
2023-01-04T01:57:35.821Z,102002.00
2023-01-04T02:00:23.374Z,101994.00
2023-01-04T02:03:18.526Z,101986.00
2023-01-04T02:05:51.283Z,101990.00
2023-01-04T02:08:22.401Z,101976.00
2023-01-04T02:10:49.695Z,101977.00
2023-01-04T02:13:23.676Z,101973.00
2023-01-04T02:16:18.462Z,101964.00
2023-01-04T02:18:58.049Z,101946.00
2023-01-04T02:21:56.616Z,101940.00
2023-01-04T02:24:55.794Z,101936.00
2023-01-04T02:27:41.231Z,101915.00
2023-01-04T02:30:39.678Z,101902.00
2023-01-04T02:33:27.787Z,101897.00
2023-01-04T02:36:21.585Z,101883.00
2023-01-04T02:39:17.935Z,101882.00
2023-01-04T02:42:13.344Z,101883.00
2023-01-04T02:45:04.515Z,101859.00
2023-01-04T02:47:57.327Z,101849.00
2023-01-04T02:50:50.802Z,101851.00
2023-01-04T02:53:28.547Z,101847.00
2023-01-04T02:56:19.514Z,101834.00
2023-01-04T02:59:02.172Z,101843.00
2023-01-04T03:02:48.100Z,101849.00
2023-01-04T03:06:18.018Z,101842.00
2023-01-04T03:08:57.932Z,101826.00
2023-01-04T03:11:58.370Z,101831.00
2023-01-04T03:14:33.807Z,101822.00
2023-01-04T03:17:12.263Z,101815.00
2023-01-04T03:19:51.427Z,101812.00
2023-01-04T03:22:48.192Z,101806.00
2023-01-04T03:25:39.738Z,101798.00
2023-01-04T03:28:28.723Z,101804.00
2023-01-04T03:31:54.920Z,101803.00
2023-01-04T03:34:41.106Z,101795.00
2023-01-04T03:37:21.286Z,101788.00
2023-01-04T03:40:36.005Z,101776.00
2023-01-04T03:43:37.388Z,101768.00
2023-01-04T03:46:36.595Z,101766.00
2023-01-04T03:49:27.521Z,101749.00
2023-01-04T03:51:59.001Z,101737.00
2023-01-04T03:54:33.350Z,101742.00
2023-01-04T03:57:01.571Z,101746.00
2023-01-04T03:59:28.628Z,101733.00
2023-01-04T04:01:56.143Z,101728.00
2023-01-04T04:04:41.735Z,101726.00
2023-01-04T04:07:26.950Z,101723.00
2023-01-04T04:09:53.656Z,101720.00
2023-01-04T04:12:20.399Z,101715.00
2023-01-04T04:14:47.107Z,101696.00
2023-01-04T04:17:13.846Z,101708.00
2023-01-04T04:19:40.576Z,101689.00
2023-01-04T04:22:07.278Z,101682.00
2023-01-04T04:24:34.172Z,101682.00
2023-01-04T04:27:00.899Z,101672.00
2023-01-04T04:29:27.618Z,101670.00
2023-01-04T04:31:54.479Z,101663.00
2023-01-04T04:34:21.425Z,101653.00
2023-01-04T04:36:48.178Z,101645.00
2023-01-04T04:39:14.952Z,101652.00
2023-01-04T04:41:42.033Z,101639.00
2023-01-04T04:44:18.421Z,101635.00
2023-01-04T04:46:47.158Z,101640.00
2023-01-04T04:49:14.410Z,101618.00
2023-01-04T04:51:42.641Z,101614.00
2023-01-04T04:54:14.517Z,101599.00
2023-01-04T04:56:41.244Z,101596.00
2023-01-04T04:59:09.587Z,101588.00
2023-01-04T05:01:36.538Z,101593.00
2023-01-04T05:04:03.530Z,101576.00
2023-01-04T05:06:30.307Z,101564.00
2023-01-04T05:08:57.105Z,101574.00
2023-01-04T05:11:42.710Z,101560.00
2023-01-04T05:14:10.291Z,101561.00
2023-01-04T05:16:37.204Z,101561.00
2023-01-04T05:19:04.349Z,101542.00
2023-01-04T05:21:31.118Z,101529.00
2023-01-04T05:23:57.832Z,101526.00
2023-01-04T05:26:24.577Z,101526.00
2023-01-04T05:28:54.064Z,101513.00
2023-01-04T05:31:22.124Z,101512.00
2023-01-04T05:33:48.948Z,101506.00
2023-01-04T05:36:16.043Z,101502.00
2023-01-04T05:38:42.815Z,101494.00
2023-01-04T05:41:29.486Z,101483.00
2023-01-04T05:43:56.523Z,101473.00
2023-01-04T05:46:23.524Z,101453.00
2023-01-04T05:48:50.395Z,101460.00
2023-01-04T05:51:17.124Z,101452.00
2023-01-04T05:53:43.907Z,101437.00
2023-01-04T05:56:10.667Z,101438.00
2023-01-04T05:58:37.402Z,101432.00
2023-01-04T06:01:04.203Z,101433.00
2023-01-04T06:03:32.125Z,101439.00
2023-01-04T06:05:58.938Z,101432.00
2023-01-04T06:08:25.641Z,101427.00
2023-01-04T06:10:54.384Z,101419.00
2023-01-04T06:13:21.370Z,101409.00
2023-01-04T06:15:48.129Z,101409.00
2023-01-04T06:18:14.893Z,101403.00
2023-01-04T06:20:43.664Z,101392.00
2023-01-04T06:23:10.730Z,101400.00
2023-01-04T06:25:37.943Z,101397.00
2023-01-04T06:28:04.706Z,101378.00
2023-01-04T06:30:31.528Z,101383.00
2023-01-04T06:32:58.329Z,101376.00
2023-01-04T06:35:25.139Z,101359.00
2023-01-04T06:37:51.932Z,101358.00
2023-01-04T06:40:18.664Z,101355.00
2023-01-04T06:42:45.412Z,101337.00
2023-01-04T06:45:16.715Z,101342.00
2023-01-04T06:47:43.922Z,101339.00
2023-01-04T06:50:11.777Z,101338.00
2023-01-04T06:52:38.679Z,101328.00
2023-01-04T06:55:09.561Z,101323.00
2023-01-04T06:57:36.501Z,101323.00
2023-01-04T07:00:06.517Z,101315.00
2023-01-04T07:02:33.556Z,101323.00
2023-01-04T07:05:00.938Z,101307.00
2023-01-04T07:07:27.698Z,101303.00
2023-01-04T07:09:56.641Z,101301.00
2023-01-04T07:12:23.538Z,101301.00
2023-01-04T07:14:50.272Z,101281.00
2023-01-04T07:17:17.063Z,101286.00
2023-01-04T07:19:43.829Z,101288.00
2023-01-04T07:22:11.196Z,101284.00
2023-01-04T07:24:38.121Z,101280.00
2023-01-04T07:27:05.060Z,101271.00
2023-01-04T07:29:31.855Z,101257.00
2023-01-04T07:31:58.624Z,101259.00
2023-01-04T07:34:26.285Z,101264.00
2023-01-04T07:36:53.141Z,101250.00
2023-01-04T07:39:21.860Z,101248.00
2023-01-04T07:41:50.461Z,101256.00
2023-01-04T07:44:21.501Z,101245.00
2023-01-04T07:46:48.413Z,101238.00
2023-01-04T07:49:18.502Z,101240.00
2023-01-04T07:51:47.360Z,101231.00
2023-01-04T07:54:15.992Z,101234.00
2023-01-04T07:56:44.102Z,101223.00
2023-01-04T07:59:13.090Z,101224.00
2023-01-04T08:01:40.410Z,101210.00
2023-01-04T08:04:09.340Z,101206.00
2023-01-04T08:06:37.606Z,101195.00
2023-01-04T08:09:06.456Z,101190.00
2023-01-04T08:11:34.715Z,101182.00
2023-01-04T08:14:03.064Z,101170.00
2023-01-04T08:16:33.845Z,101168.00
2023-01-04T08:19:24.096Z,101181.00
2023-01-04T08:21:50.864Z,101163.00
2023-01-04T08:24:21.102Z,101167.00
2023-01-04T08:26:48.328Z,101152.00
2023-01-04T08:29:15.183Z,101143.00
2023-01-04T08:31:42.292Z,101142.00
2023-01-04T08:34:10.249Z,101159.00
2023-01-04T08:36:49.774Z,101160.00
2023-01-04T08:39:17.154Z,101149.00
2023-01-04T08:42:00.544Z,101147.00
2023-01-04T08:44:29.641Z,101146.00
2023-01-04T08:46:56.764Z,101145.00
2023-01-04T08:49:24.658Z,101131.00
2023-01-04T08:51:51.448Z,101128.00
2023-01-04T08:54:18.847Z,101141.00
2023-01-04T08:56:45.694Z,101138.00
2023-01-04T08:59:13.451Z,101143.00
2023-01-04T09:01:41.177Z,101139.00
2023-01-04T09:04:08.663Z,101127.00
2023-01-04T09:06:37.123Z,101131.00
2023-01-04T09:09:03.895Z,101138.00
2023-01-04T09:11:30.629Z,101128.00
2023-01-04T09:14:07.269Z,101135.00
2023-01-04T09:16:36.883Z,101120.00
2023-01-04T09:19:05.793Z,101115.00
2023-01-04T09:21:32.704Z,101114.00
2023-01-04T09:23:59.528Z,101117.00
2023-01-04T09:26:26.654Z,101104.00
2023-01-04T09:28:56.216Z,101106.00
2023-01-04T09:31:28.540Z,101096.00
2023-01-04T09:34:16.019Z,101094.00
2023-01-04T09:36:45.068Z,101085.00
2023-01-04T09:39:20.832Z,101068.00
2023-01-04T09:41:53.363Z,101068.00
2023-01-04T09:47:47.172Z,101055.00
2023-01-04T09:50:33.647Z,101060.00
2023-01-04T09:53:25.363Z,101055.00
2023-01-04T09:55:57.272Z,101044.00
2023-01-04T09:58:26.908Z,101036.00
2023-01-04T10:01:08.116Z,101034.00
2023-01-04T10:03:42.033Z,101032.00
2023-01-04T10:06:12.954Z,101022.00
2023-01-04T10:08:43.050Z,101017.00
2023-01-04T10:11:40.345Z,101015.00
2023-01-04T10:14:41.423Z,101009.00
2023-01-04T10:24:07.826Z,100993.00
2023-01-04T10:26:45.634Z,100995.00
2023-01-04T10:29:50.153Z,100967.00
2023-01-04T10:32:32.628Z,100965.00
2023-01-04T10:34:59.521Z,100954.00
2023-01-04T10:37:35.033Z,100941.00
2023-01-04T10:40:02.614Z,100945.00
2023-01-04T10:42:38.055Z,100944.00
2023-01-04T10:45:18.403Z,100933.00
2023-01-04T10:48:02.548Z,100923.00
2023-01-04T10:51:03.588Z,100933.00
2023-01-04T10:53:59.776Z,100914.00
2023-01-04T10:56:45.630Z,100924.00
2023-01-04T10:59:29.963Z,100907.00
2023-01-04T11:01:56.740Z,100905.00
2023-01-04T11:04:37.328Z,100897.00
2023-01-04T11:07:18.721Z,100900.00
2023-01-04T11:10:01.010Z,100891.00
2023-01-04T11:12:27.843Z,100874.00
2023-01-04T11:14:54.646Z,100867.00
2023-01-04T11:17:24.813Z,100874.00
2023-01-04T11:19:52.577Z,100861.00
2023-01-04T11:22:30.904Z,100864.00
2023-01-04T11:28:06.561Z,100855.00
2023-01-04T11:30:48.611Z,100850.00
2023-01-04T11:33:19.922Z,100848.00
2023-01-04T11:35:51.633Z,100846.00
2023-01-04T11:38:30.478Z,100848.00
2023-01-04T11:41:06.528Z,100845.00
2023-01-04T11:43:39.365Z,100844.00
2023-01-04T11:46:17.771Z,100828.00
2023-01-04T11:48:46.871Z,100820.00
2023-01-04T11:51:29.088Z,100824.00
2023-01-04T11:54:15.582Z,100817.00
2023-01-04T12:00:14.741Z,100810.00
2023-01-04T12:05:32.278Z,100784.00
2023-01-04T12:07:59.716Z,100781.00
2023-01-04T12:10:28.546Z,100786.00
2023-01-04T12:12:59.288Z,100774.00
2023-01-04T12:15:56.426Z,100770.00
2023-01-04T12:18:30.107Z,100776.00
2023-01-04T12:20:57.828Z,100765.00
2023-01-04T12:23:24.947Z,100760.00
2023-01-04T12:25:54.043Z,100766.00
2023-01-04T12:28:34.725Z,100767.00
2023-01-04T12:31:20.453Z,100753.00
2023-01-04T12:34:12.572Z,100745.00
2023-01-04T12:36:39.282Z,100742.00
2023-01-04T12:39:14.903Z,100736.00
2023-01-04T12:41:41.605Z,100728.00
2023-01-04T12:44:36.316Z,100724.00
2023-01-04T12:47:36.986Z,100723.00
2023-01-04T12:50:12.232Z,100721.00
2023-01-04T12:55:44.681Z,100713.00
2023-01-04T12:58:58.063Z,100702.00
2023-01-04T13:01:28.401Z,100707.00
2023-01-04T13:04:05.162Z,100703.00
2023-01-04T13:06:44.675Z,100703.00
2023-01-04T13:09:24.007Z,100695.00
2023-01-04T13:12:14.629Z,100689.00
2023-01-04T13:14:50.959Z,100692.00
2023-01-04T13:17:26.947Z,100670.00
2023-01-04T13:19:53.982Z,100674.00
2023-01-04T13:22:30.905Z,100670.00
2023-01-04T13:25:01.689Z,100677.00
2023-01-04T13:27:28.419Z,100660.00
2023-01-04T13:29:55.540Z,100665.00
2023-01-04T13:32:27.527Z,100676.00
2023-01-04T13:35:13.347Z,100656.00
2023-01-04T13:37:45.666Z,100660.00
2023-01-04T13:40:32.607Z,100667.00
2023-01-04T13:43:55.658Z,100649.00
2023-01-04T13:46:25.114Z,100655.00
2023-01-04T13:49:00.037Z,100655.00
2023-01-04T13:51:37.730Z,100648.00
2023-01-04T13:54:18.413Z,100631.00
2023-01-04T13:56:49.718Z,100644.00
2023-01-04T13:59:20.935Z,100631.00
2023-01-04T14:01:51.672Z,100631.00
2023-01-04T14:04:28.487Z,100627.00
2023-01-04T14:06:59.263Z,100639.00
2023-01-04T14:09:31.110Z,100634.00
2023-01-04T14:12:13.041Z,100645.00
2023-01-04T14:14:59.188Z,100623.00
2023-01-04T14:17:53.869Z,100627.00
2023-01-04T14:20:20.608Z,100623.00
2023-01-04T14:22:47.323Z,100626.00
2023-01-04T14:25:40.483Z,100637.00
2023-01-04T14:28:22.453Z,100623.00
2023-01-04T14:30:53.557Z,100613.00
2023-01-04T14:33:30.546Z,100611.00
2023-01-04T14:36:07.116Z,100611.00
2023-01-04T14:38:48.771Z,100593.00
2023-01-04T14:41:22.481Z,100601.00
2023-01-04T14:44:05.546Z,100607.00
2023-01-04T14:46:32.732Z,100599.00
2023-01-04T14:48:59.686Z,100599.00
2023-01-04T14:51:38.336Z,100595.00
2023-01-04T14:54:11.484Z,100603.00
2023-01-04T14:56:39.060Z,100594.00
2023-01-04T14:59:06.109Z,100589.00
2023-01-04T15:01:33.371Z,100592.00
2023-01-04T15:04:00.351Z,100581.00
2023-01-04T15:06:27.185Z,100579.00
2023-01-04T15:08:54.030Z,100571.00
2023-01-04T15:11:20.786Z,100571.00
2023-01-04T15:13:47.616Z,100570.00
2023-01-04T15:16:17.689Z,100572.00
2023-01-04T15:18:45.869Z,100559.00
2023-01-04T15:21:13.892Z,100552.00
2023-01-04T15:23:40.947Z,100565.00
2023-01-04T15:26:10.920Z,100561.00
2023-01-04T15:28:38.289Z,100555.00
2023-01-04T15:31:11.634Z,100553.00
2023-01-04T15:33:38.979Z,100546.00
2023-01-04T15:36:12.532Z,100555.00
2023-01-04T15:38:39.270Z,100551.00
2023-01-04T15:41:35.832Z,100546.00
2023-01-04T15:44:09.212Z,100548.00
2023-01-04T15:46:36.063Z,100552.00
2023-01-04T15:49:02.817Z,100534.00
2023-01-04T15:51:29.609Z,100535.00
2023-01-04T15:53:56.722Z,100529.00
2023-01-04T15:56:23.526Z,100527.00
2023-01-04T15:58:54.979Z,100527.00
2023-01-04T16:01:22.734Z,100516.00
2023-01-04T16:03:54.039Z,100507.00
2023-01-04T16:06:22.094Z,100501.00
2023-01-04T16:08:51.831Z,100493.00
2023-01-04T16:11:23.570Z,100495.00
2023-01-04T16:13:52.677Z,100493.00
2023-01-04T16:16:22.729Z,100484.00
2023-01-04T16:18:52.809Z,100483.00
2023-01-04T16:21:26.680Z,100475.00
2023-01-04T16:24:06.852Z,100481.00
2023-01-04T16:26:39.945Z,100481.00
2023-01-04T16:29:06.694Z,100481.00
2023-01-04T16:31:37.924Z,100476.00
2023-01-04T16:34:06.333Z,100474.00
2023-01-04T16:36:34.090Z,100464.00
2023-01-04T16:39:01.927Z,100456.00
2023-01-04T16:41:29.075Z,100458.00
2023-01-04T16:43:59.468Z,100455.00
2023-01-04T16:46:31.749Z,100438.00
2023-01-04T16:49:06.439Z,100449.00
2023-01-04T16:51:35.780Z,100451.00
2023-01-04T16:54:07.131Z,100433.00
2023-01-04T16:56:34.690Z,100419.00
2023-01-04T16:59:02.900Z,100432.00
2023-01-04T17:01:33.711Z,100400.00
2023-01-04T17:04:10.343Z,100411.00
2023-01-04T17:06:43.822Z,100406.00
2023-01-04T17:09:15.581Z,100414.00
2023-01-04T17:14:30.999Z,100422.00
2023-01-04T17:16:58.035Z,100405.00
2023-01-04T17:19:25.414Z,100399.00
2023-01-04T17:21:52.410Z,100400.00
2023-01-04T17:24:19.853Z,100386.00
2023-01-04T17:26:46.951Z,100396.00
2023-01-04T17:29:14.971Z,100398.00
2023-01-04T17:31:44.630Z,100380.00
2023-01-04T17:34:22.685Z,100371.00
2023-01-04T17:36:50.286Z,100365.00
2023-01-04T17:39:17.205Z,100385.00
2023-01-04T17:41:44.654Z,100353.00
2023-01-04T17:44:11.434Z,100366.00
2023-01-04T17:46:38.899Z,100375.00
2023-01-04T17:49:22.283Z,100360.00
2023-01-04T17:51:52.681Z,100365.00
2023-01-04T17:54:20.828Z,100356.00
2023-01-04T17:56:47.584Z,100336.00
2023-01-04T17:59:14.352Z,100353.00
2023-01-04T18:01:41.299Z,100354.00
2023-01-04T18:04:09.102Z,100359.00
2023-01-04T18:06:37.354Z,100369.00
2023-01-04T18:09:07.048Z,100363.00
2023-01-04T18:11:35.651Z,100359.00
2023-01-04T18:14:06.039Z,100348.00
2023-01-04T18:16:56.230Z,100358.00
2023-01-04T18:19:27.044Z,100344.00
2023-01-04T18:21:55.134Z,100350.00
2023-01-04T18:24:38.917Z,100345.00
2023-01-04T18:27:25.494Z,100349.00
2023-01-04T18:29:55.072Z,100334.00
2023-01-04T18:32:23.908Z,100340.00
2023-01-04T18:34:50.806Z,100343.00
2023-01-04T18:37:18.770Z,100342.00
2023-01-04T18:39:46.567Z,100351.00
2023-01-04T18:42:13.303Z,100346.00
2023-01-04T18:44:47.357Z,100343.00
2023-01-04T18:47:16.698Z,100350.00
2023-01-04T18:49:43.534Z,100337.00
2023-01-04T18:52:10.270Z,100323.00
2023-01-04T18:54:37.014Z,100313.00
2023-01-04T18:57:05.064Z,100312.00
2023-01-04T18:59:32.388Z,100304.00
2023-01-04T19:02:01.593Z,100320.00
2023-01-04T19:04:34.572Z,100315.00
2023-01-04T19:07:02.241Z,100312.00
2023-01-04T19:09:29.105Z,100301.00
2023-01-04T19:11:55.938Z,100307.00
2023-01-04T19:14:22.671Z,100314.00
2023-01-04T19:16:50.444Z,100313.00
2023-01-04T19:19:17.250Z,100312.00
2023-01-04T19:21:44.003Z,100306.00
2023-01-04T19:24:10.737Z,100316.00
2023-01-04T19:26:38.138Z,100306.00
2023-01-04T19:29:08.006Z,100306.00
2023-01-04T19:31:35.512Z,100307.00
2023-01-04T19:34:02.288Z,100302.00
2023-01-04T19:36:29.242Z,100288.00
2023-01-04T19:38:57.254Z,100301.00
2023-01-04T19:41:33.601Z,100295.00
2023-01-04T19:44:07.643Z,100305.00
2023-01-04T19:46:38.225Z,100303.00
2023-01-04T19:49:10.910Z,100285.00
2023-01-04T19:51:43.744Z,100290.00
2023-01-04T19:54:11.135Z,100288.00
2023-01-04T19:56:37.869Z,100280.00
2023-01-04T19:59:06.276Z,100282.00
2023-01-04T20:01:33.073Z,100281.00
2023-01-04T20:03:59.948Z,100277.00
2023-01-04T20:06:27.237Z,100273.00
2023-01-04T20:08:53.967Z,100270.00
2023-01-04T20:11:20.686Z,100253.00
2023-01-04T20:13:47.478Z,100247.00
2023-01-04T20:16:14.253Z,100253.00
2023-01-04T20:18:41.006Z,100258.00
2023-01-04T20:21:11.099Z,100256.00
2023-01-04T20:23:38.959Z,100251.00
2023-01-04T20:26:15.891Z,100249.00
2023-01-04T20:28:45.885Z,100248.00
2023-01-04T20:31:16.371Z,100254.00
2023-01-04T20:33:43.166Z,100260.00
2023-01-04T20:36:18.867Z,100250.00
2023-01-04T20:38:47.767Z,100251.00
2023-01-04T20:41:22.173Z,100245.00
2023-01-04T20:43:49.637Z,100235.00
2023-01-04T20:46:23.234Z,100249.00
2023-01-04T20:48:51.016Z,100255.00
2023-01-04T20:51:21.853Z,100251.00
2023-01-04T20:53:49.415Z,100252.00
2023-01-04T20:56:23.812Z,100249.00
2023-01-04T20:58:52.129Z,100249.00
2023-01-04T21:01:21.728Z,100240.00
2023-01-04T21:03:49.544Z,100226.00
2023-01-04T21:06:18.859Z,100242.00
2023-01-04T21:08:46.856Z,100237.00
2023-01-04T21:11:14.620Z,100236.00
2023-01-04T21:13:42.145Z,100250.00
2023-01-04T21:16:10.339Z,100251.00
2023-01-04T21:18:37.740Z,100253.00
2023-01-04T21:21:15.645Z,100247.00
2023-01-04T21:23:44.675Z,100241.00
2023-01-04T21:26:16.102Z,100245.00
2023-01-04T21:28:43.071Z,100248.00
2023-01-04T21:31:19.752Z,100246.00
2023-01-04T21:33:47.421Z,100236.00
2023-01-04T21:36:19.294Z,100232.00
2023-01-04T21:38:53.461Z,100242.00
2023-01-04T21:41:24.981Z,100265.00
2023-01-04T21:43:55.075Z,100259.00
2023-01-04T21:46:22.403Z,100244.00
2023-01-04T21:48:56.399Z,100232.00
2023-01-04T21:51:23.518Z,100242.00
2023-01-04T21:53:50.546Z,100238.00
2023-01-04T21:56:21.849Z,100237.00
2023-01-04T21:58:48.944Z,100255.00
2023-01-04T22:01:22.334Z,100252.00
2023-01-04T22:03:49.312Z,100267.00
2023-01-04T22:06:16.399Z,100260.00
2023-01-04T22:08:44.035Z,100261.00
2023-01-04T22:11:12.020Z,100254.00
2023-01-04T22:13:39.192Z,100250.00
2023-01-04T22:16:13.086Z,100241.00
2023-01-04T22:18:39.800Z,100226.00
2023-01-04T22:21:11.633Z,100238.00
2023-01-04T22:23:38.415Z,100220.00
2023-01-04T22:26:05.782Z,100243.00
2023-01-04T22:28:36.705Z,100247.00
2023-01-04T22:31:07.278Z,100244.00
2023-01-04T22:33:38.509Z,100247.00
2023-01-04T22:36:21.738Z,100275.00
2023-01-04T22:38:51.172Z,100261.00
2023-01-04T22:41:21.143Z,100258.00
2023-01-04T22:43:53.161Z,100251.00
2023-01-04T22:46:20.010Z,100236.00
2023-01-04T22:48:46.967Z,100236.00
2023-01-04T22:51:16.887Z,100236.00
2023-01-04T22:53:43.909Z,100241.00
2023-01-04T22:56:19.645Z,100246.00
2023-01-04T22:58:52.459Z,100242.00
2023-01-04T23:01:22.667Z,100223.00
2023-01-04T23:03:51.657Z,100241.00
2023-01-04T23:06:18.763Z,100245.00
2023-01-04T23:08:45.603Z,100243.00
2023-01-04T23:11:18.655Z,100235.00
2023-01-04T23:13:45.802Z,100224.00
2023-01-04T23:16:16.090Z,100222.00
2023-01-04T23:18:43.543Z,100221.00
2023-01-04T23:21:11.562Z,100210.00
2023-01-04T23:23:39.020Z,100213.00
2023-01-04T23:26:20.398Z,100206.00
2023-01-04T23:28:47.544Z,100203.00
2023-01-04T23:31:19.064Z,100207.00
2023-01-04T23:33:46.898Z,100188.00
2023-01-04T23:36:19.039Z,100200.00
2023-01-04T23:38:52.599Z,100207.00
2023-01-04T23:41:20.449Z,100202.00
2023-01-04T23:43:47.212Z,100203.00
2023-01-04T23:46:17.892Z,100206.00
2023-01-04T23:48:45.173Z,100200.00
2023-01-04T23:51:13.145Z,100202.00
2023-01-04T23:53:40.128Z,100205.00
2023-01-04T23:56:14.328Z,100207.00
2023-01-04T23:58:41.426Z,100202.00
